Time;durP1;ratioP1;P1;durP2;ratioP2;P2;SDS_P1;SDS_P2;PMS_P1;PMS_P2;Temp;Humidity;BMP_temperature;BMP_pressure;BME280_temperature;BME280_humidity;BME280_pressure;Samples;Min_cycle;Max_cycle;Signal;HPM_P1;HPM_P2
2022/10/18 00:01:55;;;;;;;33.08;19.58;;;;;;;13.54;100.00;102369.81;5055541;28;20052;-65
2022/10/18 00:04:21;;;;;;;31.33;19.52;;;;;;;13.53;100.00;102371.59;5055383;28;20504;-66
2022/10/18 00:06:46;;;;;;;31.58;19.10;;;;;;;13.51;100.00;102368.00;5055389;28;20025;-66
2022/10/18 00:09:12;;;;;;;32.38;18.45;;;;;;;13.51;100.00;102370.66;5055337;28;20054;-65
2022/10/18 00:11:37;;;;;;;34.85;18.88;;;;;;;13.51;100.00;102373.31;5055252;28;20028;-66
2022/10/18 00:14:03;;;;;;;32.15;19.20;;;;;;;13.52;100.00;102372.44;5055469;28;20515;-66
2022/10/18 00:16:29;;;;;;;30.75;19.05;;;;;;;13.51;100.00;102369.78;5055017;28;20036;-66
2022/10/18 00:18:54;;;;;;;32.88;18.88;;;;;;;13.46;100.00;102372.34;5054833;28;20056;-66
2022/10/18 00:21:22;;;;;;;31.30;19.02;;;;;;;13.50;100.00;102365.31;5055139;28;20017;-66
2022/10/18 00:23:48;;;;;;;31.00;19.33;;;;;;;13.50;100.00;102374.19;5055262;28;20033;-66
2022/10/18 00:26:16;;;;;;;29.27;17.92;;;;;;;13.48;100.00;102370.59;5054956;28;20032;-66
2022/10/18 00:28:42;;;;;;;29.40;18.58;;;;;;;13.51;100.00;102370.66;5046867;28;20144;-66
2022/10/18 00:31:09;;;;;;;30.23;18.50;;;;;;;13.49;100.00;102369.75;5051319;28;20041;-66
2022/10/18 00:33:35;;;;;;;31.98;19.08;;;;;;;13.46;100.00;102372.34;5054810;28;20080;-66
2022/10/18 00:36:00;;;;;;;31.63;19.27;;;;;;;13.43;100.00;102367.88;5054441;28;20524;-66
2022/10/18 00:38:25;;;;;;;31.55;19.30;;;;;;;13.43;100.00;102356.38;5054761;28;20422;-66
2022/10/18 00:40:50;;;;;;;32.03;19.85;;;;;;;13.41;100.00;102361.66;5054729;28;20128;-66
2022/10/18 00:43:17;;;;;;;33.50;19.85;;;;;;;13.44;100.00;102363.47;5054946;28;20056;-66
2022/10/18 00:45:42;;;;;;;32.80;19.35;;;;;;;13.44;100.00;102360.81;5053349;28;20021;-66
2022/10/18 00:48:08;;;;;;;30.05;18.55;;;;;;;13.38;100.00;102368.66;5055028;28;20028;-66
2022/10/18 00:50:34;;;;;;;31.02;19.02;;;;;;;13.42;100.00;102367.84;5054499;28;20536;-66
2022/10/18 00:53:02;;;;;;;31.42;19.27;;;;;;;13.42;100.00;102371.41;5054664;28;20021;-65
2022/10/18 00:55:30;;;;;;;31.13;18.92;;;;;;;13.37;100.00;102366.91;5054664;28;20033;-65
2022/10/18 00:57:56;;;;;;;32.05;19.55;;;;;;;13.36;100.00;102379.25;5054456;28;20025;-65
2022/10/18 01:00:21;;;;;;;31.52;19.15;;;;;;;13.35;100.00;102374.84;5054316;28;20115;-65
2022/10/18 01:02:47;;;;;;;33.05;19.65;;;;;;;13.34;100.00;102377.41;5054501;28;20116;-65
2022/10/18 01:05:14;;;;;;;30.77;18.52;;;;;;;13.38;100.00;102377.56;5054275;28;20112;-65
2022/10/18 01:08:06;;;;;;;31.67;18.67;;;;;;;13.38;100.00;102384.59;5053860;28;20025;-66
2022/10/18 01:10:31;;;;;;;32.10;19.10;;;;;;;13.40;100.00;102388.19;5051135;28;20547;-66
2022/10/18 01:13:04;;;;;;;32.38;19.55;;;;;;;13.41;100.00;102392.63;5054402;28;20154;-66
2022/10/18 01:15:36;;;;;;;32.70;19.60;;;;;;;13.40;100.00;102393.50;5051118;28;20241;-66
2022/10/18 01:18:24;;;;;;;31.90;19.38;;;;;;;13.39;100.00;102386.41;5053846;28;20028;-66
2022/10/18 01:20:52;;;;;;;32.20;19.63;;;;;;;13.40;100.00;102380.22;5053922;28;20032;-66
2022/10/18 01:23:30;;;;;;;31.13;18.92;;;;;;;13.36;100.00;102381.91;5053852;28;20029;-66
2022/10/18 01:26:01;;;;;;;32.42;19.55;;;;;;;13.37;100.00;102382.84;5050166;28;20391;-66
2022/10/18 01:28:53;;;;;;;32.10;18.83;;;;;;;13.36;100.00;102386.34;5050369;28;20113;-66
2022/10/18 01:31:40;;;;;;;32.55;19.73;;;;;;;13.36;100.00;102378.38;5053500;28;20454;-66
2022/10/18 01:34:08;;;;;;;31.58;19.35;;;;;;;13.32;100.00;102380.03;5051430;28;20462;-65
2022/10/18 01:36:38;;;;;;;32.75;19.83;;;;;;;13.31;100.00;102391.56;5053896;28;20024;-66
2022/10/18 01:39:08;;;;;;;32.90;19.75;;;;;;;13.27;100.00;102394.13;5052182;28;20392;-66
2022/10/18 01:41:38;;;;;;;31.50;20.02;;;;;;;13.29;100.00;102392.38;5053371;28;20048;-65
2022/10/18 01:44:08;;;;;;;32.40;19.55;;;;;;;13.32;100.00;102395.09;5053575;28;20376;-66
2022/10/18 01:46:34;;;;;;;33.63;20.77;;;;;;;13.29;100.00;102393.28;5052592;28;20017;-66
2022/10/18 01:49:00;;;;;;;32.05;19.92;;;;;;;13.29;100.00;102395.03;5053383;28;20033;-65
2022/10/18 01:51:27;;;;;;;29.90;18.50;;;;;;;13.27;100.00;102381.75;5053476;28;20037;-66
2022/10/18 01:53:53;;;;;;;32.25;19.02;;;;;;;13.22;100.00;102389.63;5053207;28;20025;-66
2022/10/18 01:56:41;;;;;;;31.17;18.92;;;;;;;13.27;100.00;102388.81;5053526;28;20035;-66
2022/10/18 01:59:21;;;;;;;31.33;18.20;;;;;;;13.20;100.00;102388.69;5024820;28;20037;-66
2022/10/18 02:02:01;;;;;;;31.25;18.70;;;;;;;13.15;100.00;102393.03;5031138;28;20088;-66
2022/10/18 02:04:32;;;;;;;34.88;19.15;;;;;;;13.12;100.00;102395.63;5031043;28;20030;-66
2022/10/18 02:07:11;;;;;;;32.95;19.60;;;;;;;13.14;100.00;102396.56;5031253;28;20057;-65
2022/10/18 02:09:50;;;;;;;31.50;19.17;;;;;;;13.13;100.00;102392.09;5028914;28;20041;-66
2022/10/18 02:12:18;;;;;;;33.67;19.73;;;;;;;13.11;100.00;102385.00;5031254;28;20029;-66
2022/10/18 02:14:44;;;;;;;32.22;19.52;;;;;;;13.13;100.00;102388.56;5030928;28;20393;-65
2022/10/18 02:17:11;;;;;;;34.28;20.35;;;;;;;13.13;100.00;102386.78;5030850;28;20041;-65
2022/10/18 02:19:45;;;;;;;33.17;18.98;;;;;;;13.06;100.00;102385.81;5030959;28;20400;-65
2022/10/18 02:22:12;;;;;;;31.58;19.05;;;;;;;13.06;100.00;102383.16;5030743;28;20033;-71
2022/10/18 02:24:43;;;;;;;33.17;18.65;;;;;;;13.03;100.00;102391.06;5030818;28;20496;-70
2022/10/18 02:27:09;;;;;;;30.45;18.73;;;;;;;12.99;100.00;102385.63;5030986;28;20049;-69
2022/10/18 02:29:35;;;;;;;32.33;19.73;;;;;;;13.04;100.00;102383.97;5030483;28;20164;-70
2022/10/18 02:32:20;;;;;;;34.40;19.75;;;;;;;12.96;100.00;102393.53;5030697;28;20026;-71
2022/10/18 02:34:56;;;;;;;34.05;19.55;;;;;;;12.94;100.00;102397.94;5030707;28;20116;-70
2022/10/18 02:37:26;;;;;;;32.45;19.45;;;;;;;12.90;100.00;102391.66;5052972;28;20021;-71
2022/10/18 02:39:51;;;;;;;31.92;18.58;;;;;;;12.87;100.00;102399.56;5052593;28;20049;-70
2022/10/18 02:42:17;;;;;;;31.90;20.10;;;;;;;12.86;100.00;102396.03;5052782;28;20025;-70
2022/10/18 02:44:42;;;;;;;33.20;19.73;;;;;;;12.87;100.00;102403.13;5052813;28;20021;-70
2022/10/18 02:47:09;;;;;;;31.80;18.83;;;;;;;12.85;100.00;102403.97;5053087;28;20025;-70
2022/10/18 02:49:34;;;;;;;34.85;22.05;;;;;;;12.90;100.00;102405.84;5052459;28;20063;-70
2022/10/18 02:52:00;;;;;;;34.53;20.48;;;;;;;12.93;100.00;102407.69;5052526;28;20052;-69
2022/10/18 02:54:25;;;;;;;34.20;20.73;;;;;;;12.94;100.00;102403.25;5052706;28;20467;-70
2022/10/18 02:56:50;;;;;;;32.63;20.02;;;;;;;12.97;100.00;102398.88;5052411;28;20032;-71
2022/10/18 02:59:16;;;;;;;34.15;20.55;;;;;;;12.97;100.00;102393.56;5055975;28;20032;-70
2022/10/18 03:01:41;;;;;;;32.55;20.00;;;;;;;12.99;100.00;102396.25;5056584;28;20472;-70
2022/10/18 03:04:06;;;;;;;39.38;23.20;;;;;;;13.00;100.00;102398.94;5056549;28;20025;-70
2022/10/18 03:06:32;;;;;;;34.90;21.63;;;;;;;13.03;100.00;102391.06;5055458;28;20029;-69
2022/10/18 03:08:57;;;;;;;35.85;22.73;;;;;;;13.00;100.00;102393.63;5056469;28;20071;-70
2022/10/18 03:11:23;;;;;;;36.47;22.83;;;;;;;13.01;100.00;102397.19;5056266;28;20035;-68
2022/10/18 03:13:51;;;;;;;36.63;22.25;;;;;;;13.02;100.00;102402.53;5056758;28;20033;-71
2022/10/18 03:16:16;;;;;;;35.15;21.23;;;;;;;12.97;100.00;102403.31;5056336;28;20086;-70
2022/10/18 03:18:42;;;;;;;32.55;20.95;;;;;;;12.98;100.00;102395.38;5056356;28;20028;-70
2022/10/18 03:21:08;;;;;;;34.47;21.20;;;;;;;12.98;100.00;102394.47;5056380;28;20049;-70
2022/10/18 03:23:33;;;;;;;37.42;21.70;;;;;;;12.94;100.00;102400.59;5056191;28;20021;-70
2022/10/18 03:25:59;;;;;;;31.98;20.42;;;;;;;12.89;100.00;102401.41;5056166;28;20040;-68
2022/10/18 03:28:24;;;;;;;33.33;21.25;;;;;;;12.88;100.00;102410.22;5056089;28;20021;-70
2022/10/18 03:30:50;;;;;;;36.97;21.67;;;;;;;12.87;100.00;102407.53;5056179;28;20029;-70
2022/10/18 03:33:15;;;;;;;38.42;23.67;;;;;;;12.89;100.00;102406.69;5056194;28;20498;-66
2022/10/18 03:35:41;;;;;;;37.53;24.80;;;;;;;12.90;100.00;102404.94;5056180;28;20024;-66
2022/10/18 03:38:06;;;;;;;38.15;25.23;;;;;;;12.96;100.00;102405.06;5055833;28;20020;-66
2022/10/18 03:40:31;;;;;;;40.75;25.88;;;;;;;12.95;100.00;102411.25;5055915;28;20044;-66
2022/10/18 03:42:56;;;;;;;40.45;26.20;;;;;;;12.97;100.00;102411.28;5055700;28;20456;-66
2022/10/18 03:45:22;;;;;;;40.38;26.02;;;;;;;12.95;100.00;102411.25;5055751;28;20120;-66
2022/10/18 03:47:47;;;;;;;38.00;25.65;;;;;;;12.93;100.00;102410.31;5055896;28;20056;-66
2022/10/18 03:50:13;;;;;;;40.17;26.35;;;;;;;12.91;100.00;102406.72;5055501;28;20021;-66
2022/10/18 03:52:38;;;;;;;41.70;27.30;;;;;;;12.91;100.00;102399.66;5055680;28;20033;-66
2022/10/18 03:55:04;;;;;;;43.72;27.45;;;;;;;12.88;100.00;102394.28;5055826;28;20383;-66
2022/10/18 03:57:29;;;;;;;44.28;29.98;;;;;;;12.88;100.00;102394.28;5055464;28;20029;-66
2022/10/18 03:59:54;;;;;;;41.25;26.05;;;;;;;12.81;100.00;102387.06;5055451;28;20082;-66
2022/10/18 04:02:20;;;;;;;42.75;26.70;;;;;;;12.75;100.00;102383.41;5055605;28;20082;-66
2022/10/18 04:04:45;;;;;;;40.53;26.25;;;;;;;12.73;100.00;102386.03;5055599;28;20029;-66
2022/10/18 04:07:10;;;;;;;42.38;27.17;;;;;;;12.71;100.00;102395.72;5055425;28;20099;-66
2022/10/18 04:09:36;;;;;;;41.35;27.50;;;;;;;12.70;100.00;102388.66;5054533;28;20467;-65
2022/10/18 04:12:01;;;;;;;38.90;25.65;;;;;;;12.66;100.00;102384.13;5055277;28;20091;-71
2022/10/18 04:14:26;;;;;;;49.53;28.20;;;;;;;12.64;100.00;102394.72;5055587;28;20021;-70
2022/10/18 04:16:52;;;;;;;43.30;27.30;;;;;;;12.67;100.00;102391.25;5055478;28;20028;-71
2022/10/18 04:19:17;;;;;;;51.60;32.20;;;;;;;12.66;100.00;102379.72;5055069;28;20028;-70
2022/10/18 04:21:43;;;;;;;64.65;32.47;;;;;;;12.67;100.00;102383.28;5055380;28;20025;-71
2022/10/18 04:24:08;;;;;;;176.73;32.50;;;;;;;12.57;100.00;102390.16;5055055;28;20027;-71
2022/10/18 04:26:33;;;;;;;129.88;32.17;;;;;;;12.58;100.00;102393.69;5054951;28;20036;-71
2022/10/18 04:28:58;;;;;;;230.80;31.15;;;;;;;12.55;100.00;102395.41;5055130;28;20025;-71
2022/10/18 04:31:24;;;;;;;75.03;29.65;;;;;;;12.61;100.00;102404.34;5054666;28;20095;-71
2022/10/18 04:33:49;;;;;;;61.20;28.65;;;;;;;12.59;100.00;102411.41;5054807;28;20029;-71
2022/10/18 04:36:14;;;;;;;73.05;34.53;;;;;;;12.62;100.00;102396.41;5055003;28;20108;-71
2022/10/18 04:38:39;;;;;;;43.15;27.83;;;;;;;12.59;100.00;102399.00;5054877;28;20032;-71
2022/10/18 04:41:05;;;;;;;45.97;29.23;;;;;;;12.50;100.00;102415.63;5054581;28;20041;-70
2022/10/18 04:43:30;;;;;;;47.80;30.08;;;;;;;12.53;100.00;102412.16;5054899;28;20029;-71
2022/10/18 04:45:56;;;;;;;45.45;29.92;;;;;;;12.49;100.00;102405.88;5054573;28;20024;-71
2022/10/18 04:48:21;;;;;;;53.45;32.47;;;;;;;12.51;100.00;102403.28;5054657;28;20029;-71
2022/10/18 04:50:48;;;;;;;46.72;29.98;;;;;;;12.43;100.00;102405.75;5054647;28;20040;-71
2022/10/18 04:53:14;;;;;;;47.30;30.98;;;;;;;12.48;100.00;102409.41;5054648;28;20446;-70
2022/10/18 04:55:49;;;;;;;46.55;29.45;;;;;;;12.40;100.00;102411.00;5054733;28;20025;-71
2022/10/18 04:58:15;;;;;;;110.75;33.65;;;;;;;12.39;100.00;102419.81;5054600;28;20025;-71
2022/10/18 05:00:41;;;;;;;62.35;32.83;;;;;;;12.40;100.00;102416.31;5054181;28;20484;-71
2022/10/18 05:03:07;;;;;;;72.07;32.05;;;;;;;12.40;100.00;102411.00;5054363;28;20024;-71
2022/10/18 05:05:33;;;;;;;58.83;34.85;;;;;;;12.43;100.00;102415.47;5054478;28;20043;-70
2022/10/18 05:07:58;;;;;;;83.85;33.00;;;;;;;12.42;100.00;102413.69;5054182;28;20089;-70
2022/10/18 05:10:24;;;;;;;53.30;33.22;;;;;;;12.44;100.00;102418.16;5054258;28;20032;-70
2022/10/18 05:12:49;;;;;;;45.00;29.55;;;;;;;12.38;100.00;102424.22;5054307;28;20029;-66
2022/10/18 05:15:15;;;;;;;44.45;30.10;;;;;;;12.34;100.00;102416.19;5054138;28;20032;-66
2022/10/18 05:17:40;;;;;;;56.80;32.97;;;;;;;12.31;100.00;102417.00;5054045;28;20025;-66
2022/10/18 05:20:06;;;;;;;57.45;33.30;;;;;;;12.28;100.00;102424.88;5054165;28;20025;-66
2022/10/18 05:22:31;;;;;;;51.40;30.48;;;;;;;12.25;100.00;102423.94;5053958;28;20459;-66
2022/10/18 05:24:56;;;;;;;47.50;30.77;;;;;;;12.18;100.00;102422.88;5048997;28;20048;-68
2022/10/18 05:27:21;;;;;;;62.15;34.35;;;;;;;12.21;100.00;102437.09;5053831;28;20021;-67
2022/10/18 05:29:47;;;;;;;59.33;33.45;;;;;;;12.24;100.00;102430.09;5053674;28;20032;-66
2022/10/18 05:32:12;;;;;;;90.40;32.83;;;;;;;12.22;100.00;102432.72;5046781;28;20029;-66
2022/10/18 05:34:38;;;;;;;145.63;34.67;;;;;;;12.20;100.00;102434.41;5052214;28;20215;-66
2022/10/18 05:37:03;;;;;;;229.43;37.55;;;;;;;12.18;100.00;102434.38;5053620;28;20056;-66
2022/10/18 05:39:28;;;;;;;176.43;34.97;;;;;;;12.15;100.00;102436.97;5046653;28;20519;-69
2022/10/18 05:41:54;;;;;;;207.10;36.47;;;;;;;12.19;100.00;102437.94;5041492;28;20135;-66
2022/10/18 05:44:19;;;;;;;87.55;31.27;;;;;;;12.18;100.00;102430.84;5040026;28;20032;-66
2022/10/18 05:46:44;;;;;;;124.15;32.83;;;;;;;12.18;100.00;102431.72;5047757;28;20025;-70
2022/10/18 05:49:13;;;;;;;67.57;31.48;;;;;;;12.18;100.00;102430.84;5039630;28;20029;-65
2022/10/18 05:51:38;;;;;;;115.43;33.92;;;;;;;12.10;100.00;102428.03;5045229;28;20443;-66
2022/10/18 05:54:04;;;;;;;52.53;30.35;;;;;;;12.08;100.00;102442.97;5045555;28;20017;-70
2022/10/18 05:56:29;;;;;;;56.00;29.63;;;;;;;12.02;100.00;102437.53;5044504;28;20031;-69
2022/10/18 05:58:54;;;;;;;79.45;30.80;;;;;;;11.97;100.00;102433.88;5044299;28;20025;-74
2022/10/18 06:01:20;;;;;;;84.93;31.80;;;;;;;12.00;100.00;102440.16;5046412;28;20064;-75
2022/10/18 06:03:45;;;;;;;59.38;30.23;;;;;;;11.93;100.00;102445.25;5046505;28;20094;-74
2022/10/18 06:06:12;;;;;;;63.25;28.65;;;;;;;11.83;100.00;102445.00;5048048;28;20519;-75
2022/10/18 06:08:39;;;;;;;103.72;32.03;;;;;;;11.89;100.00;102444.25;5049669;28;20021;-73
2022/10/18 06:11:06;;;;;;;109.68;32.30;;;;;;;11.91;100.00;102452.25;5048353;28;20032;-72
2022/10/18 06:13:32;;;;;;;153.85;36.15;;;;;;;11.90;100.00;102453.09;5049262;28;20036;-69
2022/10/18 06:15:57;;;;;;;105.40;33.47;;;;;;;11.91;100.00;102453.16;5041681;28;20025;-69
2022/10/18 06:18:22;;;;;;;169.07;37.58;;;;;;;11.95;100.00;102449.75;5046239;28;20025;-68
2022/10/18 06:20:48;;;;;;;102.35;33.45;;;;;;;12.00;100.00;102452.53;5045379;28;20040;-68
2022/10/18 06:23:13;;;;;;;158.23;37.25;;;;;;;11.95;100.00;102456.81;5046926;28;20074;-69
2022/10/18 06:25:38;;;;;;;176.15;37.50;;;;;;;11.97;100.00;102458.63;5048075;28;20048;-68
2022/10/18 06:28:05;;;;;;;152.50;35.83;;;;;;;12.00;100.00;102452.53;5044727;28;20498;-66
2022/10/18 06:30:30;;;;;;;115.75;35.00;;;;;;;12.03;100.00;102460.53;5049261;28;20029;-69
2022/10/18 06:32:59;;;;;;;86.63;36.15;;;;;;;12.08;100.00;102464.19;5044198;28;20032;-69
2022/10/18 06:35:24;;;;;;;75.13;36.40;;;;;;;12.16;100.00;102480.28;5045126;28;20094;-70
2022/10/18 06:37:50;;;;;;;94.85;38.15;;;;;;;12.20;100.00;102482.13;5046559;28;20527;-70
2022/10/18 06:40:15;;;;;;;84.95;39.58;;;;;;;12.27;100.00;102480.53;5050426;28;20055;-69
2022/10/18 06:42:41;;;;;;;94.15;37.30;;;;;;;12.26;100.00;102476.06;5049899;28;20025;-65
2022/10/18 06:45:07;;;;;;;117.20;39.22;;;;;;;12.26;100.00;102471.69;5044892;28;20361;-66
2022/10/18 06:47:32;;;;;;;129.50;39.15;;;;;;;12.27;100.00;102477.88;5047829;28;20494;-66
2022/10/18 06:49:58;;;;;;;131.25;40.35;;;;;;;12.29;100.00;102484.09;5042620;28;20025;-65
2022/10/18 06:52:24;;;;;;;82.45;36.47;;;;;;;12.36;100.00;102475.44;5048489;28;20025;-65
2022/10/18 06:54:50;;;;;;;69.28;35.95;;;;;;;12.40;100.00;102489.66;5044606;28;20129;-66
2022/10/18 06:57:15;;;;;;;72.20;36.33;;;;;;;12.46;100.00;102500.41;5046267;28;20107;-65
2022/10/18 06:59:41;;;;;;;103.70;38.40;;;;;;;12.44;100.00;102505.69;5045671;28;20021;-65
2022/10/18 07:02:06;;;;;;;91.32;38.05;;;;;;;12.41;100.00;102508.28;5043346;28;20043;-65
2022/10/18 07:04:32;;;;;;;79.80;36.70;;;;;;;12.38;100.00;102508.19;5044611;28;20041;-65
2022/10/18 07:06:57;;;;;;;63.92;36.13;;;;;;;12.37;100.00;102501.97;5048589;28;20422;-65
2022/10/18 07:09:22;;;;;;;68.28;36.28;;;;;;;12.36;100.00;102512.56;5043614;28;20048;-66
2022/10/18 07:11:48;;;;;;;119.65;39.83;;;;;;;12.33;100.00;102510.75;5043489;28;20104;-65
2022/10/18 07:14:13;;;;;;;90.18;38.60;;;;;;;12.36;100.00;102525.81;5047506;28;20040;-65
2022/10/18 07:16:39;;;;;;;64.88;38.40;;;;;;;12.44;100.00;102524.25;5043895;28;20025;-64
2022/10/18 07:19:04;;;;;;;71.57;40.42;;;;;;;12.51;100.00;102520.00;5046409;28;20497;-64
2022/10/18 07:21:30;;;;;;;88.53;41.17;;;;;;;12.52;100.00;102516.47;5045726;28;20543;-66
2022/10/18 07:23:55;;;;;;;87.88;41.97;;;;;;;12.56;100.00;102524.50;5039483;28;20045;-64
2022/10/18 07:26:30;;;;;;;80.90;41.08;;;;;;;12.70;100.00;102534.56;5046225;28;20494;-64
2022/10/18 07:29:08;;;;;;;74.63;39.88;;;;;;;12.78;100.00;102546.22;5045219;28;20116;-64
2022/10/18 07:31:34;;;;;;;105.78;41.53;;;;;;;12.82;100.00;102544.56;5043393;28;20033;-64
2022/10/18 07:34:00;;;;;;;81.28;40.40;;;;;;;12.91;100.00;102542.09;5045519;28;20472;-65
2022/10/18 07:36:25;;;;;;;83.25;38.83;;;;;;;12.87;100.00;102550.84;5047641;28;20095;-65
2022/10/18 07:38:51;;;;;;;65.97;36.85;;;;;;;12.94;100.00;102560.72;5045005;28;20116;-65
2022/10/18 07:41:18;;;;;;;77.25;37.63;;;;;;;13.02;100.00;102560.94;5041999;28;20128;-65
2022/10/18 07:43:45;;;;;;;66.30;37.58;;;;;;;13.10;100.00;102564.63;5045466;28;20053;-66
2022/10/18 07:46:12;;;;;;;65.75;36.28;;;;;;;13.07;100.00;102570.75;5049880;28;20032;-65
2022/10/18 07:48:37;;;;;;;61.70;35.55;;;;;;;13.15;100.00;102568.28;5047229;28;20024;-65
2022/10/18 07:51:04;;;;;;;61.40;35.17;;;;;;;13.24;100.00;102584.38;5049154;28;20037;-65
2022/10/18 07:53:30;;;;;;;60.70;33.75;;;;;;;13.27;100.00;102588.88;5051154;28;20025;-65
2022/10/18 07:55:57;;;;;;;55.72;32.72;;;;;;;13.36;100.00;102591.75;5048711;28;20053;-66
2022/10/18 07:58:23;;;;;;;54.78;31.95;;;;;;;13.28;100.00;102593.34;5043565;28;20025;-66
2022/10/18 08:00:48;;;;;;;51.20;30.13;;;;;;;13.30;100.00;102598.69;5048374;28;20074;-66
2022/10/18 08:03:14;;;;;;;50.15;29.23;;;;;;;13.23;100.00;102597.63;5046451;28;20452;-66
2022/10/18 08:05:39;;;;;;;47.67;28.67;;;;;;;13.36;100.00;102602.38;5046859;28;20024;-65
2022/10/18 08:08:04;;;;;;;46.22;27.30;;;;;;;13.43;100.00;102616.69;5042247;28;20044;-65
2022/10/18 08:10:30;;;;;;;45.72;26.80;;;;;;;13.54;100.00;102609.84;5043680;28;20052;-65
2022/10/18 08:12:56;;;;;;;44.15;27.50;;;;;;;13.59;100.00;102609.94;5043928;28;20116;-67
2022/10/18 08:15:24;;;;;;;43.35;26.45;;;;;;;13.66;100.00;102614.50;5043522;28;20024;-69
2022/10/18 08:17:50;;;;;;;42.17;25.33;;;;;;;13.69;100.00;102622.53;5048439;28;20025;-65
2022/10/18 08:20:15;;;;;;;40.28;24.73;;;;;;;13.87;100.00;102624.63;5048602;28;20033;-65
2022/10/18 08:22:40;;;;;;;40.15;24.85;;;;;;;13.95;100.00;102633.66;5047392;28;20022;-72
2022/10/18 08:25:06;;;;;;;39.42;24.50;;;;;;;14.09;100.00;102625.91;5048695;28;20033;-72
2022/10/18 08:27:31;;;;;;;40.35;24.25;;;;;;;14.18;100.00;102634.94;5048543;28;20059;-68
2022/10/18 08:29:58;;;;;;;37.90;23.85;;;;;;;14.44;100.00;102628.28;5046318;28;20056;-65
2022/10/18 08:32:24;;;;;;;36.47;22.38;;;;;;;14.48;100.00;102629.25;5050417;28;20013;-67
2022/10/18 08:34:50;;;;;;;35.20;21.77;;;;;;;14.52;100.00;102635.50;5045711;28;20053;-71
2022/10/18 08:37:15;;;;;;;33.35;19.77;;;;;;;14.47;100.00;102632.78;5048806;28;20476;-78
2022/10/18 08:39:40;;;;;;;32.70;19.58;;;;;;;14.38;100.00;102638.84;5046077;28;20029;-81
2022/10/18 08:42:41;;;;;;;32.55;19.45;;;;;;;14.54;100.00;102637.31;5045858;28;20491;-75
2022/10/18 08:45:10;;;;;;;33.20;19.90;;;;;;;14.63;100.00;102641.94;5048356;28;20037;-64
2022/10/18 08:47:43;;;;;;;36.10;21.50;;;;;;;14.93;100.00;102648.63;5046160;28;20027;-64
2022/10/18 08:50:16;;;;;;;34.92;21.33;;;;;;;15.01;100.00;102646.94;5048986;28;20033;-65
2022/10/18 08:52:51;;;;;;;34.20;21.05;;;;;;;15.05;100.00;102643.47;5050698;28;20516;-64
2022/10/18 08:55:38;;;;;;;32.55;20.08;;;;;;;15.27;100.00;102641.09;5045720;28;20020;-65
2022/10/18 08:58:25;;;;;;;33.33;19.48;;;;;;;15.20;100.00;102650.75;5047294;28;20021;-65
2022/10/18 09:01:22;;;;;;;31.88;19.55;;;;;;;15.21;100.00;102649.91;5041126;28;20026;-66
2022/10/18 09:04:23;;;;;;;31.52;18.90;;;;;;;15.22;100.00;102657.03;5047721;28;20035;-65
2022/10/18 09:07:05;;;;;;;31.58;18.35;;;;;;;14.94;100.00;102651.31;5046043;28;20166;-65
2022/10/18 09:10:05;;;;;;;31.70;19.48;;;;;;;14.93;100.00;102641.53;5044648;28;20026;-64
2022/10/18 09:12:42;;;;;;;32.03;19.58;;;;;;;14.92;100.00;102653.03;5026202;28;20554;-65
2022/10/18 09:15:21;;;;;;;34.90;19.83;;;;;;;14.98;100.00;102653.16;5026943;28;20463;-65
2022/10/18 09:17:51;;;;;;;30.75;19.58;;;;;;;15.31;100.00;102661.59;5030695;28;20049;-65
2022/10/18 09:20:25;;;;;;;29.75;19.88;;;;;;;15.37;100.00;102653.66;5030883;28;20057;-65
2022/10/18 09:23:08;;;;;;;30.63;18.13;;;;;;;15.52;100.00;102650.28;5029900;28;20045;-65
2022/10/18 09:25:42;;;;;;;29.00;16.40;;;;;;;15.56;100.00;102657.44;5026544;28;20115;-65
2022/10/18 09:28:34;;;;;;;28.80;17.25;;;;;;;15.40;100.00;102655.47;5016961;28;20080;-65
2022/10/18 09:31:07;;;;;;;29.88;17.38;;;;;;;15.49;100.00;102653.84;5030535;28;20040;-66
2022/10/18 09:33:43;;;;;;;29.23;17.30;;;;;;;15.90;100.00;102641.91;5028699;28;20094;-66
2022/10/18 09:36:14;;;;;;;27.63;15.85;;;;;;;16.02;100.00;102639.34;5028034;28;20040;-66
2022/10/18 09:38:44;;;;;;;27.95;15.35;;;;;;;16.06;100.00;102647.38;5030851;28;20021;-66
2022/10/18 09:41:18;;;;;;;27.73;14.88;;;;;;;15.95;100.00;102653.50;5030826;28;20088;-66
2022/10/18 09:43:53;;;;;;;26.77;15.10;;;;;;;15.76;100.00;102649.69;5031423;28;20131;-66
2022/10/18 09:46:22;;;;;;;29.73;15.50;;;;;;;15.63;100.00;102651.31;5031612;28;20581;-66
2022/10/18 09:48:50;;;;;;;26.60;14.63;;;;;;;15.84;100.00;102657.81;5037904;28;20041;-66
2022/10/18 09:51:22;;;;;;;26.67;15.45;;;;;;;16.20;100.00;102667.09;5053390;28;20040;-66
2022/10/18 09:54:13;;;;;;;33.72;14.82;;;;;;;16.85;100.00;102672.97;5053626;28;20159;-66
2022/10/18 09:56:50;;;;;;;26.58;13.10;;;;;;;17.78;100.00;102664.56;5051397;28;20025;-66
2022/10/18 09:59:26;;;;;;;25.10;11.65;;;;;;;18.29;100.00;102655.78;5053422;28;20032;-66
2022/10/18 10:01:52;;;;;;;27.33;12.38;;;;;;;18.87;100.00;102654.00;5053416;28;20028;-66
2022/10/18 10:04:17;;;;;;;25.48;12.45;;;;;;;19.56;100.00;102653.78;5053075;28;20028;-66
2022/10/18 10:06:49;;;;;;;25.15;10.85;;;;;;;20.78;100.00;102652.06;5053099;28;20029;-66
2022/10/18 10:09:16;;;;;;;24.10;10.13;;;;;;;21.37;100.00;102647.81;5050871;28;20055;-66
2022/10/18 10:11:50;;;;;;;23.33;9.10;;;;;;;22.04;100.00;102655.03;5050051;28;20413;-66
2022/10/18 10:14:18;;;;;;;23.40;9.20;;;;;;;22.88;100.00;102652.72;5046868;28;20071;-65
2022/10/18 10:16:46;;;;;;;22.13;8.02;;;;;;;23.12;100.00;102658.59;5041345;28;20112;-65
2022/10/18 10:19:35;;;;;;;21.52;7.57;;;;;;;23.30;100.00;102655.53;5043896;28;20024;-66
2022/10/18 10:22:07;;;;;;;21.92;6.40;;;;;;;23.72;100.00;102651.03;5045431;28;20029;-65
2022/10/18 10:24:45;;;;;;;21.25;6.30;;;;;;;23.72;100.00;102659.13;5039788;28;20025;-69
2022/10/18 10:27:52;;;;;;;20.00;5.70;;;;;;;24.07;100.00;102654.75;5045224;28;20025;-72
2022/10/18 10:30:21;;;;;;;20.92;6.00;;;;;;;23.87;100.00;102653.44;5042125;28;20119;-72
2022/10/18 10:32:49;;;;;;;19.17;5.75;;;;;;;23.73;100.00;102663.63;5041685;28;20064;-72
2022/10/18 10:35:31;;;;;;;18.52;5.45;;;;;;;24.51;100.00;102666.31;5045759;28;20060;-71
2022/10/18 10:37:57;;;;;;;20.13;5.30;;;;;;;24.93;100.00;102667.91;5041970;28;20052;-71
2022/10/18 10:40:29;;;;;;;18.33;4.70;;;;;;;25.68;100.00;102675.72;5049416;28;20053;-72
2022/10/18 10:42:54;;;;;;;19.58;4.50;;;;;;;26.22;100.00;102679.47;5050522;28;20373;-69
2022/10/18 10:45:22;;;;;;;17.90;4.03;;;;;;;26.22;100.00;102676.75;5050512;28;20055;-72
2022/10/18 10:47:48;;;;;;;18.45;4.03;;;;;;;26.05;100.00;102689.03;5050402;28;20590;-69
2022/10/18 10:50:23;;;;;;;15.90;4.03;;;;;;;26.24;100.00;102688.41;5050302;28;20033;-72
2022/10/18 10:52:48;;;;;;;18.42;4.40;;;;;;;26.43;100.00;102684.16;5050334;28;20029;-70
2022/10/18 10:55:29;;;;;;;18.40;4.35;;;;;;;26.51;100.00;102680.31;5050235;28;20482;-66
2022/10/18 10:57:55;;;;;;;18.00;4.30;;;;;;;27.37;100.00;102689.97;5044934;28;20052;-65
2022/10/18 11:00:32;;;;;;;17.92;4.32;;;;;;;27.82;74.44;102689.13;5023666;28;20029;-65
2022/10/18 11:03:12;;;;;;;15.95;4.00;;;;;;;27.70;67.42;102676.91;5042124;28;20032;-64
2022/10/18 11:05:48;;;;;;;18.08;3.80;;;;;;;27.95;57.40;102689.53;5044548;28;20067;-64
2022/10/18 11:08:19;;;;;;;16.75;4.13;;;;;;;28.66;52.04;102690.25;5042532;28;20384;-65
2022/10/18 11:10:56;;;;;;;18.23;3.97;;;;;;;29.49;45.61;102687.47;5043533;28;20024;-64